MDT,Max TemperatureF,Mean TemperatureF,Min TemperatureF,Max Dew PointF,MeanDew PointF,Min DewpointF,Max Humidity, Mean Humidity, Min Humidity, Max Sea Level PressureIn, Mean Sea Level PressureIn, Min Sea Level PressureIn, Max VisibilityMiles, Mean VisibilityMiles, Min VisibilityMiles, Max Wind SpeedMPH, Mean Wind SpeedMPH, Max Gust SpeedMPH,PrecipitationIn, CloudCover, Events, WindDirDegrees
2012-10-1,75,63,51,50,45,41,82,56,31,30.21,30.16,30.08,10,10,3,32,14,39,0.00,2,,8
2012-10-2,78,63,48,46,44,43,82,55,28,30.21,30.10,29.97,10,10,10,17,7,22,0.00,1,,234
2012-10-3,87,66,46,48,45,36,87,55,16,30.00,29.97,29.92,10,10,10,15,8,20,0.00,0,,167
2012-10-4,64,55,46,46,37,30,72,51,37,30.33,30.22,30.01,10,9,2,38,16,47,0.00,1,,50
2012-10-5,75,58,41,48,41,36,81,61,36,30.23,30.16,30.05,10,10,9,24,10,30,0.00,1,,112
2012-10-6,50,44,39,37,28,25,70,54,43,30.32,30.24,30.18,10,10,10,24,15,30,0.00,8,,87
2012-10-7,51,43,35,27,25,21,70,54,38,30.32,30.25,30.17,10,10,10,13,9,,0.00,5,,161
2012-10-8,77,54,30,41,34,25,80,55,24,30.21,30.09,29.96,10,10,10,23,11,28,0.00,0,,215
2012-10-9,84,66,48,43,34,27,71,38,13,30.19,30.02,29.96,10,10,2,21,12,31,0.00,0,,283
2012-10-10,66,54,41,46,40,34,82,63,46,30.32,30.22,30.13,10,10,10,20,14,24,0.00,1,,104
2012-10-11,82,66,50,57,52,45,82,65,39,30.18,30.14,30.08,10,10,10,20,10,24,0.00,3,,201
2012-10-12,73,64,55,63,58,52,88,80,68,30.27,30.14,29.99,10,10,7,28,13,37,0.41,3,Thunderstorm,150
2012-10-13,69,61,51,59,42,30,88,51,23,30.13,30.01,29.95,10,10,4,32,19,43,0.00,1,,264
2012-10-14,73,60,48,41,38,36,66,48,27,30.34,30.25,30.13,10,10,9,16,8,,0.00,0,,300
2012-10-15,77,62,46,43,37,34,71,45,22,30.26,30.13,29.98,10,10,5,21,11,28,0.00,0,,224
2012-10-16,82,66,51,41,33,25,62,33,14,29.97,29.84,29.73,10,10,10,25,13,31,0.00,0,,259
2012-10-17,75,60,44,34,29,25,53,29,21,29.99,29.85,29.72,10,10,10,23,14,31,0.00,0,,56
2012-10-18,69,54,39,28,25,23,61,37,17,30.15,30.07,29.99,10,10,2,15,7,18,0.00,0,,131
2012-10-19,77,57,37,39,30,25,65,39,18,30.14,30.04,29.90,10,10,9,16,7,20,0.00,0,,215
2012-10-20,87,66,44,30,26,19,46,25,10,29.93,29.87,29.80,10,10,10,20,13,23,0.00,0,,261
2012-10-21,82,66,51,39,34,30,47,31,17,29.95,29.89,29.84,10,10,10,29,14,37,0.00,0,,250
2012-10-22,80,68,55,41,36,34,51,32,18,29.99,29.95,29.91,10,10,10,26,13,34,0.00,0,,237
2012-10-23,86,67,48,37,32,27,58,32,12,30.01,29.95,29.91,10,10,10,21,11,24,0.00,0,,232
2012-10-24,80,66,51,55,42,27,82,47,24,29.96,29.88,29.79,10,10,10,22,11,28,0.00,0,,219
2012-10-25,62,48,35,39,28,25,71,47,26,30.27,30.10,29.81,10,10,10,28,16,34,0.00,1,,28
2012-10-26,51,40,28,25,22,16,80,53,33,30.43,30.36,30.27,10,10,10,16,10,22,0.00,1,,48
2012-10-27,59,42,24,23,19,14,64,43,25,30.36,30.22,30.10,10,10,10,21,9,25,0.00,0,,191
2012-10-28,62,46,30,25,22,18,64,42,24,30.27,30.20,30.12,10,10,10,20,9,24,0.00,0,,187
2012-10-29,71,52,32,32,27,21,65,44,21,30.22,30.16,30.09,10,10,9,10,6,,0.00,0,,171
2012-10-30,77,57,37,34,28,25,65,36,17,30.15,30.11,30.08,10,10,9,14,5,,0.00,0,,29
2012-10-31,78,60,42,36,29,25,57,34,15,30.19,30.14,30.10,10,10,8,16,7,23,0.00,0,,233